Time;durP1;ratioP1;P1;durP2;ratioP2;P2;SDS_P1;SDS_P2;PMS_P1;PMS_P2;Temp;Humidity;BMP_temperature;BMP_pressure;BME280_temperature;BME280_humidity;BME280_pressure;Samples;Min_cycle;Max_cycle;Signal;HPM_P1;HPM_P2
2020/12/12 00:00:04;;;;;;;0.68;0.40;;;11.80;70.90;;;;;;2239289;56;20993;-73
2020/12/12 00:02:34;;;;;;;1.85;0.73;;;11.80;70.80;;;;;;2463008;55;20956;-73
2020/12/12 00:05:01;;;;;;;2.50;0.70;;;11.80;70.70;;;;;;2239441;56;21071;-73
2020/12/12 00:07:27;;;;;;;3.45;0.70;;;11.80;70.40;;;;;;2463108;55;20917;-73
2020/12/12 00:09:54;;;;;;;3.00;1.10;;;11.80;70.50;;;;;;2229769;56;20995;-73
2020/12/12 00:12:21;;;;;;;3.33;0.95;;;11.80;70.70;;;;;;2463337;55;20924;-72
2020/12/12 00:14:47;;;;;;;2.65;0.90;;;11.80;70.70;;;;;;2227881;56;21648;-73
2020/12/12 00:17:13;;;;;;;3.47;1.10;;;11.80;70.50;;;;;;2462462;55;20978;-73
2020/12/12 00:19:40;;;;;;;3.28;0.93;;;11.80;70.80;;;;;;2239162;56;21004;-73
2020/12/12 00:22:06;;;;;;;2.05;0.90;;;11.80;70.50;;;;;;2238555;56;21063;-73
2020/12/12 00:24:33;;;;;;;1.42;0.50;;;11.80;70.50;;;;;;2230205;56;20965;-73
2020/12/12 00:26:59;;;;;;;1.90;0.62;;;11.80;70.60;;;;;;2235299;55;21035;-74
2020/12/12 00:29:26;;;;;;;2.42;0.70;;;11.80;70.50;;;;;;2441987;55;21464;-74
2020/12/12 00:31:55;;;;;;;1.85;0.62;;;11.80;70.50;;;;;;2225223;55;20974;-73
2020/12/12 00:34:22;;;;;;;1.37;0.70;;;11.80;70.40;;;;;;2206986;56;20971;-74
2020/12/12 00:36:51;;;;;;;0.62;0.30;;;11.80;70.40;;;;;;2448594;55;21016;-74
2020/12/12 00:39:18;;;;;;;1.90;0.60;;;11.80;70.50;;;;;;2228657;55;21002;-73
2020/12/12 00:41:45;;;;;;;2.28;0.60;;;11.80;70.20;;;;;;2238693;56;21925;-73
2020/12/12 00:44:15;;;;;;;1.70;0.70;;;11.80;70.20;;;;;;2242042;56;21044;-73
2020/12/12 00:46:42;;;;;;;2.58;1.00;;;11.90;70.60;;;;;;2236741;56;21003;-73
2020/12/12 00:49:08;;;;;;;2.60;0.80;;;11.80;70.30;;;;;;2225575;55;21794;-74
2020/12/12 00:51:35;;;;;;;1.80;0.73;;;11.90;69.40;;;;;;2239722;55;21056;-73
2020/12/12 00:54:02;;;;;;;2.20;0.90;;;11.90;70.00;;;;;;2228217;55;21044;-73
2020/12/12 00:56:29;;;;;;;1.67;0.68;;;11.90;69.10;;;;;;2231171;56;20931;-73
2020/12/12 00:58:56;;;;;;;1.83;0.68;;;11.90;69.20;;;;;;2232623;56;21092;-74
2020/12/12 01:01:22;;;;;;;1.45;0.60;;;11.90;69.40;;;;;;2452226;55;21003;-73
2020/12/12 01:03:49;;;;;;;1.67;0.62;;;11.90;69.00;;;;;;2229483;55;21007;-73
2020/12/12 01:06:18;;;;;;;1.67;0.60;;;11.90;68.90;;;;;;2445122;55;21046;-73
2020/12/12 01:08:44;;;;;;;1.55;0.60;;;11.80;69.00;;;;;;2239276;56;21761;-73
2020/12/12 01:11:12;;;;;;;1.70;0.60;;;11.80;68.80;;;;;;2462040;55;21017;-73
2020/12/12 01:13:38;;;;;;;1.98;0.80;;;11.80;69.00;;;;;;2239065;56;20989;-73
2020/12/12 01:16:13;;;;;;;1.10;0.50;;;11.80;68.90;;;;;;2239161;56;20976;-73
2020/12/12 01:18:39;;;;;;;2.08;0.80;;;11.80;68.80;;;;;;2240642;56;20976;-74
2020/12/12 01:21:08;;;;;;;1.17;0.60;;;11.70;68.70;;;;;;2239963;56;21056;-73
2020/12/12 01:23:34;;;;;;;2.35;0.77;;;11.70;68.80;;;;;;2463113;55;22058;-73
2020/12/12 01:26:04;;;;;;;1.42;0.60;;;11.60;68.90;;;;;;2237276;56;21729;-72
2020/12/12 01:28:30;;;;;;;1.30;0.50;;;11.60;69.00;;;;;;2207385;57;21967;-73
2020/12/12 01:30:57;;;;;;;1.70;0.65;;;11.60;69.20;;;;;;2237747;56;21012;-73
2020/12/12 01:33:24;;;;;;;1.30;0.62;;;11.60;68.60;;;;;;2228021;56;21066;-73
2020/12/12 01:35:51;;;;;;;1.58;0.60;;;11.60;69.00;;;;;;2230368;55;20943;-73
2020/12/12 01:38:19;;;;;;;1.67;0.60;;;11.50;69.00;;;;;;2237193;56;20959;-73
2020/12/12 01:40:45;;;;;;;1.52;0.60;;;11.50;69.00;;;;;;2234478;56;20935;-73
2020/12/12 01:43:12;;;;;;;1.95;0.60;;;11.50;68.90;;;;;;2232731;56;21058;-73
2020/12/12 01:45:39;;;;;;;1.40;0.50;;;11.50;69.20;;;;;;2238852;56;20981;-73
2020/12/12 01:48:07;;;;;;;0.65;0.40;;;11.50;69.30;;;;;;2235649;56;21051;-73
2020/12/12 01:50:38;;;;;;;1.42;0.50;;;11.40;69.10;;;;;;2454226;55;20960;-73
2020/12/12 01:53:05;;;;;;;1.20;0.50;;;11.40;69.10;;;;;;2421224;56;21017;-74
2020/12/12 01:55:31;;;;;;;1.58;0.50;;;11.40;68.60;;;;;;2239814;56;21888;-73
2020/12/12 01:57:58;;;;;;;1.08;0.40;;;11.40;69.00;;;;;;2239196;56;20989;-73
2020/12/12 02:00:24;;;;;;;1.12;0.50;;;11.40;69.20;;;;;;2452068;55;20983;-73
2020/12/12 02:02:53;;;;;;;1.65;0.30;;;11.40;69.10;;;;;;2225853;55;21010;-73
2020/12/12 02:05:43;;;;;;;0.65;0.40;;;11.40;69.20;;;;;;2228889;56;21078;-74
2020/12/12 02:08:25;;;;;;;0.45;0.30;;;11.40;68.90;;;;;;2236494;56;21448;-72
2020/12/12 02:10:52;;;;;;;0.82;0.40;;;11.30;68.90;;;;;;2461390;56;20953;-73
2020/12/12 02:13:19;;;;;;;0.75;0.45;;;11.30;69.20;;;;;;2239195;56;21041;-73
2020/12/12 02:15:45;;;;;;;0.65;0.30;;;11.30;68.90;;;;;;2239327;56;21029;-73
2020/12/12 02:18:19;;;;;;;0.60;0.30;;;11.20;69.10;;;;;;2455830;55;20990;-73
2020/12/12 02:20:53;;;;;;;0.70;0.30;;;11.20;68.90;;;;;;2442652;55;21047;-73
2020/12/12 02:23:19;;;;;;;0.62;0.35;;;11.20;69.20;;;;;;2229614;56;20985;-73
2020/12/12 02:25:46;;;;;;;0.40;0.22;;;11.20;69.40;;;;;;2239536;56;20969;-73
2020/12/12 02:28:17;;;;;;;1.55;0.40;;;11.10;69.80;;;;;;2234389;56;21809;-73
2020/12/12 02:30:43;;;;;;;0.82;0.37;;;11.10;69.50;;;;;;2443885;55;20971;-73
2020/12/12 02:33:11;;;;;;;0.35;0.20;;;11.10;69.60;;;;;;2441874;55;20986;-73
2020/12/12 02:35:37;;;;;;;0.57;0.30;;;11.10;69.60;;;;;;2228485;55;21069;-72
2020/12/12 02:38:04;;;;;;;1.12;0.43;;;11.10;69.30;;;;;;2447549;55;21047;-73
2020/12/12 02:40:30;;;;;;;0.45;0.20;;;11.10;69.50;;;;;;2446831;55;21063;-73
2020/12/12 02:42:57;;;;;;;0.65;0.30;;;11.10;69.60;;;;;;2230307;56;20996;-73
2020/12/12 02:45:23;;;;;;;0.77;0.30;;;11.00;69.30;;;;;;2235290;55;21011;-73
2020/12/12 02:47:50;;;;;;;0.52;0.30;;;11.00;69.40;;;;;;2446165;55;20979;-72
2020/12/12 02:50:25;;;;;;;0.62;0.30;;;11.00;68.80;;;;;;2225183;55;21032;-73
2020/12/12 02:52:52;;;;;;;1.10;0.50;;;11.00;69.10;;;;;;2234043;56;21864;-73
2020/12/12 02:55:18;;;;;;;0.88;0.32;;;10.90;69.10;;;;;;2225273;55;20970;-73
2020/12/12 02:57:45;;;;;;;0.98;0.40;;;10.90;68.90;;;;;;2226949;55;21067;-73
2020/12/12 03:00:13;;;;;;;0.82;0.30;;;10.90;69.10;;;;;;2239433;56;20969;-73
2020/12/12 03:02:40;;;;;;;0.40;0.30;;;10.80;69.20;;;;;;2463259;55;20955;-74
2020/12/12 03:05:07;;;;;;;1.17;0.40;;;10.80;69.30;;;;;;2207454;57;20945;-74
2020/12/12 03:07:34;;;;;;;0.65;0.30;;;10.80;69.40;;;;;;2455769;56;20939;-74
2020/12/12 03:10:04;;;;;;;0.60;0.30;;;10.80;69.50;;;;;;2229464;55;21046;-73
2020/12/12 03:12:31;;;;;;;0.57;0.30;;;10.70;69.40;;;;;;2448403;55;21036;-74
2020/12/12 03:14:58;;;;;;;0.77;0.40;;;10.70;69.60;;;;;;2461962;55;20977;-74
2020/12/12 03:17:25;;;;;;;0.52;0.25;;;10.70;69.60;;;;;;2239167;56;20956;-74
2020/12/12 03:20:01;;;;;;;0.47;0.30;;;10.70;69.60;;;;;;2462919;55;21028;-74
2020/12/12 03:22:28;;;;;;;0.30;0.30;;;10.70;69.70;;;;;;2444476;56;20966;-74
2020/12/12 03:24:55;;;;;;;1.02;0.40;;;10.60;69.80;;;;;;2453742;56;21099;-74
2020/12/12 03:27:21;;;;;;;0.68;0.30;;;10.60;69.80;;;;;;2232783;56;21759;-74
2020/12/12 03:29:48;;;;;;;1.12;0.47;;;10.60;69.90;;;;;;2239601;56;20975;-74
2020/12/12 03:32:26;;;;;;;1.15;0.40;;;10.60;70.10;;;;;;2451847;55;20957;-74
2020/12/12 03:34:53;;;;;;;2.05;0.50;;;10.60;70.10;;;;;;2462596;55;21028;-74
2020/12/12 03:37:20;;;;;;;1.12;0.50;;;10.60;70.10;;;;;;2238635;56;21032;-74
2020/12/12 03:39:46;;;;;;;0.93;0.50;;;10.50;69.90;;;;;;2238744;56;20964;-73
2020/12/12 03:42:13;;;;;;;0.88;0.40;;;10.50;69.80;;;;;;2463281;55;20960;-74
2020/12/12 03:44:39;;;;;;;1.15;0.40;;;10.50;70.00;;;;;;2227965;56;20952;-74
2020/12/12 03:47:06;;;;;;;1.05;0.30;;;10.50;70.30;;;;;;2227569;56;21007;-74
2020/12/12 03:49:33;;;;;;;1.42;0.50;;;10.50;70.50;;;;;;2462956;55;21024;-74
2020/12/12 03:52:00;;;;;;;1.02;0.40;;;10.50;70.70;;;;;;2239025;55;21804;-73
2020/12/12 03:54:27;;;;;;;0.57;0.32;;;10.50;70.60;;;;;;2230897;56;20962;-74
2020/12/12 03:56:54;;;;;;;1.62;0.50;;;10.50;70.70;;;;;;2236946;56;21454;-73
2020/12/12 03:59:21;;;;;;;2.58;0.40;;;10.40;70.30;;;;;;2239148;56;21021;-74
2020/12/12 04:01:48;;;;;;;1.35;0.40;;;10.40;70.50;;;;;;2463151;55;20909;-73
2020/12/12 04:04:14;;;;;;;0.60;0.30;;;10.40;70.50;;;;;;2462997;55;21044;-74
2020/12/12 04:06:41;;;;;;;0.70;0.35;;;10.40;70.60;;;;;;2206638;57;21030;-74
2020/12/12 04:09:11;;;;;;;1.33;0.40;;;10.40;70.70;;;;;;2462518;55;20948;-74
2020/12/12 04:11:38;;;;;;;1.00;0.40;;;10.40;70.70;;;;;;2452011;55;21032;-74
2020/12/12 04:14:04;;;;;;;0.82;0.30;;;10.40;70.80;;;;;;2456779;55;21057;-74
2020/12/12 04:16:32;;;;;;;0.37;0.30;;;10.40;70.80;;;;;;2234363;56;21014;-74
2020/12/12 04:18:58;;;;;;;1.15;0.40;;;10.40;70.70;;;;;;2456193;56;21948;-74
2020/12/12 04:21:25;;;;;;;1.23;0.60;;;10.30;70.70;;;;;;2239440;56;20996;-74
2020/12/12 04:24:13;;;;;;;1.05;0.40;;;10.40;70.80;;;;;;2462713;55;20961;-74
2020/12/12 04:26:43;;;;;;;2.22;0.57;;;10.30;70.60;;;;;;2239834;56;20964;-74
2020/12/12 04:29:09;;;;;;;0.70;0.40;;;10.30;70.70;;;;;;2229685;56;20951;-74
2020/12/12 04:31:36;;;;;;;1.15;0.43;;;10.30;70.80;;;;;;2460640;55;21072;-73
2020/12/12 04:34:04;;;;;;;0.90;0.45;;;10.30;70.80;;;;;;2226985;55;21021;-74
2020/12/12 04:36:34;;;;;;;1.25;0.40;;;10.30;71.00;;;;;;2238411;56;21763;-73
2020/12/12 04:39:01;;;;;;;0.57;0.20;;;10.30;70.90;;;;;;2238766;56;21608;-74
2020/12/12 04:41:27;;;;;;;1.30;0.40;;;10.30;70.90;;;;;;2228448;56;20979;-74
2020/12/12 04:43:54;;;;;;;1.08;0.40;;;10.30;71.00;;;;;;2238916;56;21727;-73
2020/12/12 04:46:22;;;;;;;1.83;0.40;;;10.30;70.90;;;;;;2239177;56;21020;-76
2020/12/12 04:48:49;;;;;;;0.37;0.28;;;10.30;71.00;;;;;;2232863;55;21043;-74
2020/12/12 04:51:15;;;;;;;0.57;0.30;;;10.30;71.10;;;;;;2453746;55;21008;-74
2020/12/12 04:53:41;;;;;;;0.55;0.30;;;10.30;71.10;;;;;;2239597;56;20969;-73
2020/12/12 04:56:08;;;;;;;0.30;0.20;;;10.30;71.20;;;;;;2444376;56;21047;-72
2020/12/12 04:58:37;;;;;;;0.43;0.20;;;10.30;71.10;;;;;;2239500;55;21023;-74
2020/12/12 05:01:04;;;;;;;0.73;0.20;;;10.30;71.10;;;;;;2451723;55;21766;-74
2020/12/12 05:03:30;;;;;;;0.75;0.30;;;10.30;71.10;;;;;;2457747;55;21483;-74
2020/12/12 05:05:57;;;;;;;0.60;0.30;;;10.30;71.20;;;;;;2229534;55;21038;-74
2020/12/12 05:08:27;;;;;;;0.57;0.30;;;10.20;70.90;;;;;;2441447;56;21115;-74
2020/12/12 05:10:54;;;;;;;0.35;0.20;;;10.20;70.80;;;;;;2457689;55;21394;-74
2020/12/12 05:13:25;;;;;;;1.62;0.37;;;10.20;70.90;;;;;;2242314;56;21485;-74
2020/12/12 05:15:55;;;;;;;0.85;0.20;;;10.20;70.90;;;;;;2462843;55;21001;-73
2020/12/12 05:18:21;;;;;;;0.32;0.20;;;10.20;71.00;;;;;;2463180;56;21517;-74
2020/12/12 05:20:48;;;;;;;0.45;0.20;;;10.20;70.90;;;;;;2238569;56;21087;-74
2020/12/12 05:23:21;;;;;;;0.50;0.20;;;10.10;70.90;;;;;;2461909;55;21036;-73
2020/12/12 05:25:49;;;;;;;0.22;0.20;;;10.10;71.10;;;;;;2450953;55;20970;-74
2020/12/12 05:28:20;;;;;;;0.17;0.15;;;10.10;71.10;;;;;;2224969;55;25203;-74
2020/12/12 05:30:47;;;;;;;0.45;0.30;;;10.10;71.20;;;;;;2237210;55;21426;-74
2020/12/12 05:33:17;;;;;;;0.95;0.20;;;10.10;71.10;;;;;;2225920;55;21012;-74
2020/12/12 05:35:44;;;;;;;0.98;0.30;;;10.10;71.20;;;;;;2228025;56;20959;-74
2020/12/12 05:38:10;;;;;;;1.08;0.20;;;10.00;71.20;;;;;;2241267;56;21044;-73
2020/12/12 05:40:38;;;;;;;0.20;0.20;;;10.00;71.20;;;;;;2225723;55;21020;-73
2020/12/12 05:43:07;;;;;;;0.47;0.17;;;10.00;71.30;;;;;;2241075;56;21064;-73
2020/12/12 05:45:33;;;;;;;8.45;0.52;;;10.00;71.40;;;;;;2446027;56;20953;-73
2020/12/12 05:48:02;;;;;;;0.75;0.20;;;10.00;71.40;;;;;;2241997;56;21053;-74
2020/12/12 05:50:28;;;;;;;0.22;0.15;;;10.00;71.50;;;;;;2445551;56;21009;-73
2020/12/12 05:52:58;;;;;;;0.52;0.22;;;10.00;71.40;;;;;;2239841;56;21817;-73
2020/12/12 05:55:28;;;;;;;0.50;0.10;;;10.00;71.50;;;;;;2206605;57;20989;-74
2020/12/12 05:57:55;;;;;;;0.43;0.20;;;10.00;71.50;;;;;;2446065;56;21566;-74
2020/12/12 06:00:29;;;;;;;1.33;0.40;;;10.00;71.50;;;;;;2238862;55;21412;-74
2020/12/12 06:03:22;;;;;;;0.47;0.25;;;10.00;71.50;;;;;;2418354;56;21074;-74
2020/12/12 06:05:49;;;;;;;0.20;0.20;;;10.00;71.50;;;;;;2234491;55;20973;-74
2020/12/12 06:08:24;;;;;;;0.20;0.20;;;10.00;71.70;;;;;;2462324;55;21046;-74
2020/12/12 06:10:51;;;;;;;0.25;0.20;;;10.00;71.60;;;;;;2229034;56;21031;-74
2020/12/12 06:13:18;;;;;;;0.47;0.20;;;10.00;71.80;;;;;;2234244;56;21045;-74
2020/12/12 06:15:45;;;;;;;0.62;0.28;;;10.00;71.80;;;;;;2462764;55;22560;-74
2020/12/12 06:20:05;;;;;;;0.35;0.20;;;10.00;71.90;;;;;;2462696;55;21747;-73
2020/12/12 06:22:32;;;;;;;0.30;0.20;;;10.00;71.40;;;;;;2207770;57;21027;-73
2020/12/12 06:25:00;;;;;;;0.30;0.20;;;10.00;71.90;;;;;;2206766;57;20979;-74
2020/12/12 06:27:37;;;;;;;0.30;0.20;;;10.00;71.90;;;;;;2232189;56;21067;-74
2020/12/12 06:30:05;;;;;;;0.20;0.20;;;10.00;71.90;;;;;;2446364;56;21143;-74
2020/12/12 06:32:34;;;;;;;0.30;0.20;;;10.00;72.00;;;;;;2229225;56;21050;-73
2020/12/12 06:35:00;;;;;;;0.40;0.28;;;10.00;72.10;;;;;;2207718;57;21017;-74
2020/12/12 06:37:34;;;;;;;0.65;0.30;;;10.10;72.20;;;;;;2445317;55;21004;-74
2020/12/12 06:40:11;;;;;;;1.17;0.17;;;10.00;71.90;;;;;;2206288;57;20969;-74
2020/12/12 06:42:39;;;;;;;0.47;0.30;;;10.00;72.00;;;;;;2462316;55;21021;-73
2020/12/12 06:46:06;;;;;;;0.68;0.20;;;10.10;72.10;;;;;;2236715;55;21006;-74
2020/12/12 06:48:34;;;;;;;0.43;0.20;;;10.10;71.80;;;;;;2224603;56;21598;-73
2020/12/12 06:51:01;;;;;;;0.47;0.30;;;10.10;72.10;;;;;;2232793;56;21038;-74
2020/12/12 06:53:41;;;;;;;0.47;0.30;;;10.10;72.20;;;;;;2234437;56;20933;-74
2020/12/12 06:56:12;;;;;;;0.28;0.20;;;10.10;72.20;;;;;;2462681;55;21000;-74
2020/12/12 06:58:40;;;;;;;1.15;0.20;;;10.10;72.30;;;;;;2227913;56;20962;-73
2020/12/12 07:01:32;;;;;;;0.10;0.10;;;10.10;72.30;;;;;;2228050;56;21011;-74
2020/12/12 07:04:02;;;;;;;0.28;0.10;;;10.10;72.10;;;;;;2239971;55;20993;-73
2020/12/12 07:06:29;;;;;;;0.47;0.30;;;10.20;72.30;;;;;;2458687;55;22193;-74
2020/12/12 07:09:08;;;;;;;1.30;0.40;;;10.20;72.30;;;;;;2226292;56;20980;-73
2020/12/12 07:11:35;;;;;;;1.80;0.30;;;10.20;72.30;;;;;;2459882;55;21003;-74
2020/12/12 07:14:02;;;;;;;1.15;0.32;;;10.20;72.40;;;;;;2226365;55;20998;-74
2020/12/12 07:16:29;;;;;;;2.28;0.60;;;10.20;72.40;;;;;;2227185;55;20979;-74
2020/12/12 07:18:57;;;;;;;3.53;1.25;;;10.20;72.40;;;;;;2447642;56;20997;-74
2020/12/12 07:21:23;;;;;;;1.95;0.70;;;10.20;72.40;;;;;;2228445;56;21023;-74
2020/12/12 07:23:51;;;;;;;2.05;0.70;;;10.30;72.60;;;;;;2236948;56;21485;-74
2020/12/12 07:26:17;;;;;;;1.60;0.62;;;10.30;72.60;;;;;;2462549;55;21924;-73
2020/12/12 07:28:44;;;;;;;1.23;0.50;;;10.30;72.60;;;;;;2239418;56;20944;-74
2020/12/12 07:31:11;;;;;;;2.40;1.02;;;10.30;72.60;;;;;;2235491;56;21027;-74
2020/12/12 07:33:39;;;;;;;2.95;1.73;;;10.30;72.60;;;;;;2228347;55;20990;-74
2020/12/12 07:36:08;;;;;;;2.58;1.25;;;10.40;72.70;;;;;;2227791;56;20951;-74
2020/12/12 07:38:41;;;;;;;2.47;0.90;;;10.40;72.70;;;;;;2238930;56;20992;-74
2020/12/12 07:41:12;;;;;;;1.35;0.60;;;10.40;72.60;;;;;;2462965;55;20909;-74
2020/12/12 07:43:56;;;;;;;1.37;0.60;;;10.40;72.60;;;;;;2235954;56;20983;-74
2020/12/12 07:46:38;;;;;;;1.15;0.60;;;10.50;72.50;;;;;;2456020;55;20988;-74
2020/12/12 07:49:04;;;;;;;3.25;0.70;;;10.50;72.80;;;;;;2239471;56;21114;-74
2020/12/12 07:51:31;;;;;;;1.90;0.90;;;10.50;72.80;;;;;;2462794;55;21286;-74
2020/12/12 07:53:58;;;;;;;2.20;0.80;;;10.50;72.80;;;;;;2227668;56;21046;-74
2020/12/12 07:56:25;;;;;;;2.12;0.90;;;10.50;72.80;;;;;;2458440;55;21598;-74
2020/12/12 07:59:03;;;;;;;2.00;0.90;;;10.60;72.90;;;;;;2229115;55;20944;-74
2020/12/12 08:01:32;;;;;;;3.15;0.98;;;10.60;72.80;;;;;;2239497;55;20948;-74
2020/12/12 08:03:59;;;;;;;2.42;1.00;;;10.60;72.90;;;;;;2447959;56;20998;-73
2020/12/12 08:06:26;;;;;;;1.62;0.75;;;10.60;72.90;;;;;;2227183;55;21010;-74
2020/12/12 08:08:54;;;;;;;1.60;0.75;;;10.60;72.90;;;;;;2241145;55;20974;-74
2020/12/12 08:11:20;;;;;;;2.75;0.80;;;10.70;73.10;;;;;;2214166;55;21128;-74
2020/12/12 08:13:47;;;;;;;2.33;0.80;;;10.70;73.10;;;;;;2238812;56;20968;-74
2020/12/12 08:16:29;;;;;;;1.98;0.80;;;10.70;73.10;;;;;;2240124;56;21434;-74
2020/12/12 08:19:06;;;;;;;6.18;1.75;;;10.70;73.10;;;;;;2242723;56;21106;-74
2020/12/12 08:21:32;;;;;;;3.22;1.30;;;10.80;72.90;;;;;;2446077;55;21950;-75
2020/12/12 08:23:59;;;;;;;2.80;1.00;;;10.80;73.10;;;;;;2219833;55;20954;-74
2020/12/12 08:26:25;;;;;;;2.70;0.88;;;10.80;73.10;;;;;;2455708;56;21463;-75
2020/12/12 08:28:52;;;;;;;1.83;0.70;;;10.80;73.20;;;;;;2227889;56;21033;-73
2020/12/12 08:31:21;;;;;;;2.33;0.80;;;10.80;73.20;;;;;;2241314;56;21042;-75
2020/12/12 08:33:54;;;;;;;2.12;0.70;;;10.90;73.30;;;;;;2223392;56;20996;-74
2020/12/12 08:36:23;;;;;;;2.15;0.68;;;10.90;73.10;;;;;;2419728;56;20987;-74
2020/12/12 08:38:56;;;;;;;2.75;0.70;;;10.90;73.30;;;;;;2417105;56;21012;-74
2020/12/12 08:41:32;;;;;;;3.15;1.00;;;11.00;73.20;;;;;;2462988;55;21032;-74
2020/12/12 08:43:59;;;;;;;2.25;0.95;;;11.00;73.10;;;;;;2457717;55;21019;-74
2020/12/12 08:46:25;;;;;;;2.53;0.80;;;11.00;73.10;;;;;;2442076;55;21054;-74
2020/12/12 08:48:54;;;;;;;4.53;1.30;;;11.10;73.10;;;;;;2463219;55;20961;-74
2020/12/12 08:51:27;;;;;;;2.50;0.75;;;11.10;73.10;;;;;;2420816;56;21052;-75
2020/12/12 08:53:54;;;;;;;3.12;1.10;;;11.10;72.90;;;;;;2459444;55;20972;-75
2020/12/12 08:56:28;;;;;;;3.42;1.20;;;11.10;72.80;;;;;;2447528;56;21613;-75
2020/12/12 08:59:06;;;;;;;2.65;0.80;;;11.10;72.80;;;;;;2443676;55;21005;-73
2020/12/12 09:01:39;;;;;;;2.20;0.80;;;11.10;72.90;;;;;;2440416;55;20971;-74
2020/12/12 09:04:22;;;;;;;2.28;0.80;;;11.20;72.90;;;;;;2441321;55;21014;-74
2020/12/12 09:07:07;;;;;;;2.17;0.93;;;11.20;73.60;;;;;;2462102;55;21000;-74
2020/12/12 09:09:33;;;;;;;2.20;0.70;;;11.20;72.60;;;;;;2231030;56;20980;-73
2020/12/12 09:12:07;;;;;;;2.40;0.90;;;11.20;73.00;;;;;;2236652;56;20921;-74
2020/12/12 09:14:37;;;;;;;4.35;1.15;;;11.20;72.80;;;;;;2239483;56;22468;-75
2020/12/12 09:17:08;;;;;;;3.45;1.10;;;11.30;72.80;;;;;;2445092;55;21686;-74
2020/12/12 09:19:35;;;;;;;2.72;0.90;;;11.30;72.90;;;;;;2236218;55;21970;-74
2020/12/12 09:22:07;;;;;;;3.00;0.90;;;11.30;72.70;;;;;;2462605;55;20924;-74
2020/12/12 09:24:33;;;;;;;2.42;0.98;;;11.30;72.70;;;;;;2231264;56;20967;-74
2020/12/12 09:27:01;;;;;;;2.85;1.00;;;11.30;72.60;;;;;;2459293;55;20988;-74
2020/12/12 09:29:28;;;;;;;2.92;0.93;;;11.30;72.60;;;;;;2228047;56;21055;-74
2020/12/12 09:31:55;;;;;;;3.05;1.12;;;11.40;72.70;;;;;;2446078;56;21031;-74
2020/12/12 09:34:23;;;;;;;3.25;1.45;;;11.40;72.90;;;;;;2462048;55;21999;-73
2020/12/12 09:36:54;;;;;;;3.37;1.50;;;11.40;72.80;;;;;;2240720;56;21033;-74
2020/12/12 09:39:21;;;;;;;4.68;1.30;;;11.40;72.70;;;;;;2441627;55;21006;-73
2020/12/12 09:41:47;;;;;;;2.62;1.00;;;11.40;72.70;;;;;;2230986;55;21852;-73
2020/12/12 09:44:16;;;;;;;2.92;1.00;;;11.50;72.70;;;;;;2238796;56;21044;-73
2020/12/12 09:46:43;;;;;;;2.55;0.90;;;11.50;72.60;;;;;;2461941;55;21028;-73
2020/12/12 09:49:13;;;;;;;1.98;0.73;;;11.50;72.60;;;;;;2446546;56;20956;-74
2020/12/12 09:51:40;;;;;;;2.03;0.90;;;11.50;72.60;;;;;;2462476;55;20961;-73
2020/12/12 09:54:06;;;;;;;2.65;1.00;;;11.60;72.60;;;;;;2237595;56;21099;-74
2020/12/12 09:56:33;;;;;;;2.28;0.90;;;11.60;72.50;;;;;;2445004;55;21028;-73
2020/12/12 09:59:01;;;;;;;2.17;0.75;;;11.60;72.50;;;;;;2239555;56;21309;-73
2020/12/12 10:01:28;;;;;;;1.90;0.80;;;11.60;72.30;;;;;;2419704;56;20968;-73
2020/12/12 10:03:54;;;;;;;2.12;0.77;;;11.60;72.40;;;;;;2447560;55;20955;-73
2020/12/12 10:06:21;;;;;;;2.08;0.80;;;11.70;72.50;;;;;;2239765;55;20980;-74
2020/12/12 10:08:47;;;;;;;2.78;1.00;;;11.70;72.20;;;;;;2226265;56;20941;-73
2020/12/12 10:11:13;;;;;;;2.58;0.82;;;11.70;72.00;;;;;;2235089;56;21011;-73
2020/12/12 10:13:40;;;;;;;1.75;0.70;;;11.70;72.00;;;;;;2442090;55;21995;-74
2020/12/12 10:16:07;;;;;;;3.50;1.20;;;11.70;71.90;;;;;;2453315;55;21087;-74
2020/12/12 10:18:34;;;;;;;2.33;1.00;;;11.70;71.70;;;;;;2449795;55;21003;-74
2020/12/12 10:21:00;;;;;;;2.50;0.75;;;11.80;71.60;;;;;;2458007;55;20973;-74
2020/12/12 10:23:27;;;;;;;4.20;1.40;;;11.80;71.70;;;;;;2228683;56;21060;-74
2020/12/12 10:25:53;;;;;;;2.95;1.30;;;11.80;71.90;;;;;;2238584;56;21012;-74
2020/12/12 10:28:20;;;;;;;2.92;1.05;;;11.80;72.00;;;;;;2447076;55;21431;-73
2020/12/12 10:30:46;;;;;;;2.50;0.90;;;11.80;72.10;;;;;;2235963;56;21723;-74
2020/12/12 10:33:13;;;;;;;2.45;0.93;;;11.80;72.30;;;;;;2462013;55;21009;-74
2020/12/12 10:35:39;;;;;;;1.60;0.62;;;11.90;72.40;;;;;;2229470;55;20978;-74
2020/12/12 10:38:06;;;;;;;1.58;0.65;;;11.90;72.60;;;;;;2232508;56;21049;-73
2020/12/12 10:40:35;;;;;;;2.55;0.60;;;12.00;72.40;;;;;;2441766;55;21019;-73
2020/12/12 10:43:04;;;;;;;2.65;1.52;;;12.00;72.70;;;;;;2208072;56;21092;-73
2020/12/12 10:45:31;;;;;;;3.60;1.80;;;12.10;72.60;;;;;;2462386;55;20989;-73
2020/12/12 10:47:58;;;;;;;4.50;1.75;;;12.10;72.60;;;;;;2462260;55;21140;-73
2020/12/12 10:50:24;;;;;;;3.08;1.40;;;12.20;72.70;;;;;;2461487;55;20989;-74
2020/12/12 10:52:51;;;;;;;2.12;0.90;;;12.20;72.60;;;;;;2225584;55;20993;-73
2020/12/12 10:55:19;;;;;;;2.10;0.80;;;12.30;72.10;;;;;;2459789;55;21063;-74
2020/12/12 10:57:45;;;;;;;1.83;0.77;;;12.30;71.90;;;;;;2238526;55;20980;-74
2020/12/12 11:00:12;;;;;;;2.10;0.90;;;12.40;72.00;;;;;;2461799;55;20954;-74
2020/12/12 11:02:39;;;;;;;2.12;0.73;;;12.40;72.10;;;;;;2461377;55;20945;-73
2020/12/12 11:05:08;;;;;;;1.62;0.80;;;12.50;71.90;;;;;;2461505;55;21009;-73
2020/12/12 11:07:42;;;;;;;2.20;0.80;;;12.50;71.90;;;;;;2239017;56;21044;-73
2020/12/12 11:10:09;;;;;;;2.37;0.70;;;12.60;71.90;;;;;;2462477;56;20960;-73
2020/12/12 11:12:35;;;;;;;2.12;0.80;;;12.60;71.40;;;;;;2462141;55;21091;-74
2020/12/12 11:15:07;;;;;;;1.70;0.70;;;12.60;70.90;;;;;;2446409;56;20955;-74
2020/12/12 11:17:36;;;;;;;2.07;0.77;;;12.70;70.20;;;;;;2239540;56;21102;-74
2020/12/12 11:20:03;;;;;;;1.80;0.62;;;12.70;69.30;;;;;;2225415;55;20982;-74
2020/12/12 11:22:30;;;;;;;1.33;0.60;;;12.60;69.70;;;;;;2452584;55;20989;-73
2020/12/12 11:24:57;;;;;;;2.03;0.80;;;12.60;69.60;;;;;;2227825;56;21034;-73
2020/12/12 11:27:23;;;;;;;1.95;0.80;;;12.60;69.60;;;;;;2234196;56;21047;-73
2020/12/12 11:29:51;;;;;;;3.00;0.80;;;12.60;69.40;;;;;;2226273;55;21002;-73
2020/12/12 11:32:22;;;;;;;3.08;0.88;;;12.60;69.60;;;;;;2462149;55;21013;-74
2020/12/12 11:35:01;;;;;;;1.85;0.62;;;12.60;69.30;;;;;;2241260;55;20944;-73
2020/12/12 11:40:19;;;;;;;1.30;0.50;;;12.50;69.30;;;;;;2240709;56;21778;-74
2020/12/12 11:43:06;;;;;;;1.95;0.60;;;12.50;69.10;;;;;;2446441;55;20951;-74
2020/12/12 11:45:48;;;;;;;2.00;0.70;;;12.50;68.80;;;;;;2234651;55;20989;-74
2020/12/12 11:48:14;;;;;;;2.00;0.52;;;12.50;69.00;;;;;;2242289;56;20968;-73
2020/12/12 11:50:41;;;;;;;1.50;0.68;;;12.50;69.20;;;;;;2239306;56;21900;-74
2020/12/12 11:53:07;;;;;;;1.33;0.55;;;12.40;69.10;;;;;;2462359;55;20917;-74
2020/12/12 11:55:35;;;;;;;1.98;0.80;;;12.50;69.40;;;;;;2239270;56;20972;-74
2020/12/12 11:58:01;;;;;;;1.87;0.52;;;12.40;69.20;;;;;;2239145;56;20952;-74
2020/12/12 12:00:28;;;;;;;1.58;0.70;;;12.40;69.40;;;;;;2239072;56;21044;-74
2020/12/12 12:02:55;;;;;;;1.27;0.50;;;12.40;69.60;;;;;;2231055;55;21821;-73
2020/12/12 12:05:23;;;;;;;1.87;0.65;;;12.40;69.70;;;;;;2236479;55;20948;-73
2020/12/12 12:07:50;;;;;;;1.48;0.60;;;12.40;69.40;;;;;;2235782;56;21091;-73
2020/12/12 12:10:39;;;;;;;2.12;0.70;;;12.50;69.50;;;;;;2231995;56;20990;-74
2020/12/12 12:13:05;;;;;;;1.00;0.50;;;12.40;69.50;;;;;;2447765;56;21083;-73
2020/12/12 12:15:34;;;;;;;2.03;0.65;;;12.40;69.80;;;;;;2237796;56;21465;-72
2020/12/12 12:18:01;;;;;;;1.87;0.68;;;12.40;69.60;;;;;;2462494;55;20945;-73
2020/12/12 12:20:27;;;;;;;2.00;0.80;;;12.40;69.20;;;;;;2239028;56;21528;-73
2020/12/12 12:22:54;;;;;;;2.05;0.80;;;12.40;69.10;;;;;;2445085;56;20955;-73
2020/12/12 12:25:21;;;;;;;2.33;0.90;;;12.40;68.90;;;;;;2239150;56;21738;-73
2020/12/12 12:27:47;;;;;;;2.62;0.60;;;12.40;69.10;;;;;;2445988;55;20959;-73
2020/12/12 12:30:14;;;;;;;1.60;0.50;;;12.30;68.80;;;;;;2231885;55;20997;-74
2020/12/12 12:32:42;;;;;;;1.73;0.60;;;12.30;69.20;;;;;;2452949;55;21065;-74
2020/12/12 12:35:10;;;;;;;1.52;0.62;;;12.30;69.30;;;;;;2233348;56;21791;-73
2020/12/12 12:37:37;;;;;;;1.95;0.70;;;12.30;69.40;;;;;;2239248;56;21064;-73
2020/12/12 12:40:03;;;;;;;2.65;0.88;;;12.30;69.20;;;;;;2230943;56;21061;-73
2020/12/12 12:42:30;;;;;;;1.48;0.55;;;12.30;69.30;;;;;;2458064;56;20941;-73
2020/12/12 12:44:57;;;;;;;1.58;0.60;;;12.30;69.50;;;;;;2225469;55;20973;-72
2020/12/12 12:47:24;;;;;;;2.47;0.90;;;12.30;69.60;;;;;;2462690;56;20965;-73
2020/12/12 12:49:50;;;;;;;1.52;0.65;;;12.20;69.50;;;;;;2450803;55;21467;-73
2020/12/12 12:52:17;;;;;;;1.73;0.70;;;12.20;69.50;;;;;;2457964;55;21008;-73
2020/12/12 12:54:44;;;;;;;1.87;0.70;;;12.30;69.80;;;;;;2232225;56;21479;-73
2020/12/12 12:57:11;;;;;;;1.90;0.82;;;12.20;69.70;;;;;;2457009;55;20968;-73
2020/12/12 12:59:38;;;;;;;2.03;0.80;;;12.20;69.70;;;;;;2227828;56;20991;-73